Terminal Aerodrome Forecast
Issued by NWS

Home | Current Version | Previous Version | Text Only | Print | Product List | Glossary On
Versions: 1 2 3 4 5 6 7 8 9 10 11 12 13
000
FTUS46 KSGX 170500
TAFTRM
TAF
KTRM 170520Z 1706/1806 VRB06KT P6SM SCT120
     FM172000 14011KT P6SM VCSH SCT070 SCT150
     FM180300 VRB06KT P6SM SCT150=

USA.gov is the U.S. government's official web portal to all federal, state and local government web resources and services.